Главная страница
METAR-TAF:

METAR-TAF

Аэропорты :

Ушуая, Аргентина

широта: 54-48S, долгота: 068-19W, высота над уровнем моря: 16 м

Текущие метеонаблюдения

Эта сводка был подготовлена 59 минут назад, в 22:00 UTC
Ветер 4 Узел от северо-северо-восточный
Температура 2°C
Влажность 60%
Давление 1005 hPa
Видимость 10 км и более
Рассеянная облачность на высоте 4500 фута

METAR: SAWH 262200Z 02004KT 9999 BKN045 02/M05 Q1005

Время: 19:59 (22:59 UTC)

Прогноз

Эта сводка был подготовлена 5 часа и 59 минут назад, в 17:00 UTC
Прогноз действительный с 26-го 18 UTC до 27-го 18 UTC
Ветер 5 Узел переменных направлений
Видимость 10 км и более
Рассеянная облачность на высоте 2500 фута
небольшой дождь
изменения
С 27-го 09 UTC до 27-го 11 UTC
Ветер 10 Узел от юго-юго-восточный
изменения
С 27-го 15 UTC до 27-го 17 UTC
Ветер 15 Узел от южный-юго-западный

TAF: SAWH 261700Z 2618/2718 VRB05KT 9999 -RA BKN025 TX03/2618Z TNM01/2711Z BECMG 2709/2711 16010KT BECMG 2715/2717 20015KT

Метеонаблюдения и прогнозы для более 4000 аэропортов (сводки METAR и TAF).

Имеющиеся станции представлены на карте желтыми и красными точками.

Чтобы увидеть название станции, наведите на нее мышь.

Затем щелкните, чтобы увидеть метеонаблюдения и метеопрогнозы.

Управление картой: чтобы увеличить масштаб, щелкните зеленые кнопки с черным крестиком; чтобы уменьшить масштаб, щелкните зеленую кнопку с тире; для просмотра соседних карт щелкайте зеленые стрелки.


METAR-TAF: